sensor_id;sensor_type;location;lat;lon;timestamp;P1;durP1;ratioP1;P2;durP2;ratioP2
9372;SDS011;10838;52.350;9.790;2023-05-15T00:02:08;8.27;;;7.47;;
9372;SDS011;10838;52.350;9.790;2023-05-15T00:04:34;10.67;;;6.80;;
9372;SDS011;10838;52.350;9.790;2023-05-15T00:07:01;7.50;;;6.80;;
9372;SDS011;10838;52.350;9.790;2023-05-15T00:09:29;11.60;;;6.93;;
9372;SDS011;10838;52.350;9.790;2023-05-15T00:11:56;7.77;;;7.00;;
9372;SDS011;10838;52.350;9.790;2023-05-15T00:14:23;8.77;;;7.00;;
9372;SDS011;10838;52.350;9.790;2023-05-15T00:16:49;7.40;;;6.70;;
9372;SDS011;10838;52.350;9.790;2023-05-15T00:19:16;7.03;;;6.43;;
9372;SDS011;10838;52.350;9.790;2023-05-15T00:21:42;7.60;;;6.90;;
9372;SDS011;10838;52.350;9.790;2023-05-15T00:24:09;9.30;;;6.37;;
9372;SDS011;10838;52.350;9.790;2023-05-15T00:26:37;6.97;;;6.27;;
9372;SDS011;10838;52.350;9.790;2023-05-15T00:29:03;10.77;;;6.87;;
9372;SDS011;10838;52.350;9.790;2023-05-15T00:31:30;7.53;;;6.83;;
9372;SDS011;10838;52.350;9.790;2023-05-15T00:33:57;7.83;;;6.90;;
9372;SDS011;10838;52.350;9.790;2023-05-15T00:36:24;9.57;;;7.67;;
9372;SDS011;10838;52.350;9.790;2023-05-15T00:38:51;9.20;;;7.50;;
9372;SDS011;10838;52.350;9.790;2023-05-15T00:41:17;9.33;;;7.90;;
9372;SDS011;10838;52.350;9.790;2023-05-15T00:43:49;8.93;;;8.10;;
9372;SDS011;10838;52.350;9.790;2023-05-15T00:46:16;11.67;;;8.33;;
9372;SDS011;10838;52.350;9.790;2023-05-15T00:48:45;11.23;;;10.03;;
9372;SDS011;10838;52.350;9.790;2023-05-15T00:51:13;12.63;;;10.40;;
9372;SDS011;10838;52.350;9.790;2023-05-15T00:53:40;11.30;;;10.10;;
9372;SDS011;10838;52.350;9.790;2023-05-15T00:56:08;11.20;;;10.00;;
9372;SDS011;10838;52.350;9.790;2023-05-15T00:58:36;12.43;;;9.67;;
9372;SDS011;10838;52.350;9.790;2023-05-15T01:01:04;11.20;;;9.63;;
9372;SDS011;10838;52.350;9.790;2023-05-15T01:03:31;11.93;;;10.73;;
9372;SDS011;10838;52.350;9.790;2023-05-15T01:05:58;12.53;;;10.73;;
9372;SDS011;10838;52.350;9.790;2023-05-15T01:08:25;12.33;;;10.90;;
9372;SDS011;10838;52.350;9.790;2023-05-15T01:10:55;16.87;;;11.17;;
9372;SDS011;10838;52.350;9.790;2023-05-15T01:13:24;12.00;;;10.80;;
9372;SDS011;10838;52.350;9.790;2023-05-15T01:15:50;16.93;;;12.70;;
9372;SDS011;10838;52.350;9.790;2023-05-15T01:18:18;17.10;;;12.33;;
9372;SDS011;10838;52.350;9.790;2023-05-15T01:20:48;15.43;;;13.80;;
9372;SDS011;10838;52.350;9.790;2023-05-15T01:23:28;25.83;;;18.47;;
9372;SDS011;10838;52.350;9.790;2023-05-15T01:26:18;27.40;;;19.70;;
9372;SDS011;10838;52.350;9.790;2023-05-15T01:29:02;21.40;;;17.40;;
9372;SDS011;10838;52.350;9.790;2023-05-15T01:31:33;23.67;;;17.17;;
9372;SDS011;10838;52.350;9.790;2023-05-15T01:34:04;20.50;;;15.67;;
9372;SDS011;10838;52.350;9.790;2023-05-15T01:36:34;18.47;;;14.57;;
9372;SDS011;10838;52.350;9.790;2023-05-15T01:39:03;17.40;;;14.90;;
9372;SDS011;10838;52.350;9.790;2023-05-15T01:41:34;15.73;;;13.93;;
9372;SDS011;10838;52.350;9.790;2023-05-15T01:44:09;15.33;;;13.73;;
9372;SDS011;10838;52.350;9.790;2023-05-15T01:46:41;16.33;;;13.77;;
9372;SDS011;10838;52.350;9.790;2023-05-15T01:49:11;17.40;;;13.77;;
9372;SDS011;10838;52.350;9.790;2023-05-15T01:51:40;14.27;;;12.77;;
9372;SDS011;10838;52.350;9.790;2023-05-15T01:54:09;15.37;;;12.90;;
9372;SDS011;10838;52.350;9.790;2023-05-15T01:56:37;16.43;;;13.20;;
9372;SDS011;10838;52.350;9.790;2023-05-15T01:59:05;14.67;;;13.03;;
9372;SDS011;10838;52.350;9.790;2023-05-15T02:01:34;14.83;;;13.10;;
9372;SDS011;10838;52.350;9.790;2023-05-15T02:04:01;15.03;;;13.30;;
9372;SDS011;10838;52.350;9.790;2023-05-15T02:06:29;15.57;;;13.93;;
9372;SDS011;10838;52.350;9.790;2023-05-15T02:08:56;15.00;;;13.53;;
9372;SDS011;10838;52.350;9.790;2023-05-15T02:11:24;15.60;;;13.67;;
9372;SDS011;10838;52.350;9.790;2023-05-15T02:13:50;15.10;;;13.57;;
9372;SDS011;10838;52.350;9.790;2023-05-15T02:16:21;18.27;;;14.07;;
9372;SDS011;10838;52.350;9.790;2023-05-15T02:18:47;15.23;;;13.43;;
9372;SDS011;10838;52.350;9.790;2023-05-15T02:21:16;15.60;;;14.10;;
9372;SDS011;10838;52.350;9.790;2023-05-15T02:23:43;14.13;;;12.73;;
9372;SDS011;10838;52.350;9.790;2023-05-15T02:26:13;14.30;;;13.00;;
9372;SDS011;10838;52.350;9.790;2023-05-15T02:28:53;13.77;;;12.20;;
9372;SDS011;10838;52.350;9.790;2023-05-15T02:31:30;12.83;;;11.63;;
9372;SDS011;10838;52.350;9.790;2023-05-15T02:34:06;15.37;;;12.30;;
9372;SDS011;10838;52.350;9.790;2023-05-15T02:36:39;13.63;;;12.33;;
9372;SDS011;10838;52.350;9.790;2023-05-15T02:39:08;13.00;;;11.80;;
9372;SDS011;10838;52.350;9.790;2023-05-15T02:41:38;13.70;;;12.30;;
9372;SDS011;10838;52.350;9.790;2023-05-15T02:44:05;14.10;;;12.13;;
9372;SDS011;10838;52.350;9.790;2023-05-15T02:46:34;13.60;;;11.70;;
9372;SDS011;10838;52.350;9.790;2023-05-15T02:49:02;13.37;;;11.47;;
9372;SDS011;10838;52.350;9.790;2023-05-15T02:51:29;12.77;;;11.60;;
9372;SDS011;10838;52.350;9.790;2023-05-15T02:53:56;13.50;;;12.20;;
9372;SDS011;10838;52.350;9.790;2023-05-15T02:56:25;13.60;;;11.93;;
9372;SDS011;10838;52.350;9.790;2023-05-15T02:58:51;13.20;;;11.83;;
9372;SDS011;10838;52.350;9.790;2023-05-15T03:01:18;12.23;;;11.03;;
9372;SDS011;10838;52.350;9.790;2023-05-15T03:03:46;12.47;;;11.20;;
9372;SDS011;10838;52.350;9.790;2023-05-15T03:06:13;12.93;;;10.90;;
9372;SDS011;10838;52.350;9.790;2023-05-15T03:08:39;15.03;;;11.33;;
9372;SDS011;10838;52.350;9.790;2023-05-15T03:11:06;11.40;;;10.37;;
9372;SDS011;10838;52.350;9.790;2023-05-15T03:13:32;11.63;;;10.43;;
9372;SDS011;10838;52.350;9.790;2023-05-15T03:15:59;11.33;;;10.10;;
9372;SDS011;10838;52.350;9.790;2023-05-15T03:18:25;11.17;;;10.07;;
9372;SDS011;10838;52.350;9.790;2023-05-15T03:20:53;12.67;;;9.37;;
9372;SDS011;10838;52.350;9.790;2023-05-15T03:23:20;10.47;;;9.47;;
9372;SDS011;10838;52.350;9.790;2023-05-15T03:25:46;11.13;;;10.03;;
9372;SDS011;10838;52.350;9.790;2023-05-15T03:28:13;13.50;;;10.83;;
9372;SDS011;10838;52.350;9.790;2023-05-15T03:30:42;19.20;;;13.47;;
9372;SDS011;10838;52.350;9.790;2023-05-15T03:33:08;16.53;;;12.83;;
9372;SDS011;10838;52.350;9.790;2023-05-15T03:35:35;15.30;;;11.93;;
9372;SDS011;10838;52.350;9.790;2023-05-15T03:38:03;12.67;;;10.77;;
9372;SDS011;10838;52.350;9.790;2023-05-15T03:40:29;11.63;;;10.53;;
9372;SDS011;10838;52.350;9.790;2023-05-15T03:42:56;13.20;;;11.43;;
9372;SDS011;10838;52.350;9.790;2023-05-15T03:45:22;13.77;;;11.47;;
9372;SDS011;10838;52.350;9.790;2023-05-15T03:47:49;15.37;;;11.40;;
9372;SDS011;10838;52.350;9.790;2023-05-15T03:50:16;13.90;;;10.60;;
9372;SDS011;10838;52.350;9.790;2023-05-15T03:52:42;15.37;;;11.40;;
9372;SDS011;10838;52.350;9.790;2023-05-15T03:55:10;14.37;;;10.37;;
9372;SDS011;10838;52.350;9.790;2023-05-15T03:57:37;11.93;;;9.67;;
9372;SDS011;10838;52.350;9.790;2023-05-15T04:00:06;11.40;;;10.30;;
9372;SDS011;10838;52.350;9.790;2023-05-15T04:02:34;13.23;;;10.17;;
9372;SDS011;10838;52.350;9.790;2023-05-15T04:05:01;10.13;;;9.20;;
9372;SDS011;10838;52.350;9.790;2023-05-15T04:07:28;11.77;;;9.10;;
9372;SDS011;10838;52.350;9.790;2023-05-15T04:09:55;10.10;;;9.10;;
9372;SDS011;10838;52.350;9.790;2023-05-15T04:12:26;10.67;;;9.63;;
9372;SDS011;10838;52.350;9.790;2023-05-15T04:14:53;10.03;;;9.13;;
9372;SDS011;10838;52.350;9.790;2023-05-15T04:17:20;12.93;;;9.60;;
9372;SDS011;10838;52.350;9.790;2023-05-15T04:19:46;11.97;;;9.20;;
9372;SDS011;10838;52.350;9.790;2023-05-15T04:22:13;10.17;;;8.67;;
9372;SDS011;10838;52.350;9.790;2023-05-15T04:24:40;9.23;;;8.33;;
9372;SDS011;10838;52.350;9.790;2023-05-15T04:27:06;11.77;;;9.10;;
9372;SDS011;10838;52.350;9.790;2023-05-15T04:29:34;10.60;;;9.50;;
9372;SDS011;10838;52.350;9.790;2023-05-15T04:32:01;9.67;;;8.67;;
9372;SDS011;10838;52.350;9.790;2023-05-15T04:34:27;11.37;;;8.67;;
9372;SDS011;10838;52.350;9.790;2023-05-15T04:36:54;9.20;;;8.37;;
9372;SDS011;10838;52.350;9.790;2023-05-15T04:39:20;9.97;;;8.63;;
9372;SDS011;10838;52.350;9.790;2023-05-15T04:41:47;10.27;;;9.37;;
9372;SDS011;10838;52.350;9.790;2023-05-15T04:44:13;10.17;;;9.17;;
9372;SDS011;10838;52.350;9.790;2023-05-15T04:46:41;11.07;;;9.57;;
9372;SDS011;10838;52.350;9.790;2023-05-15T04:49:08;12.33;;;9.47;;
9372;SDS011;10838;52.350;9.790;2023-05-15T04:51:34;10.80;;;9.77;;
9372;SDS011;10838;52.350;9.790;2023-05-15T04:54:01;11.13;;;9.97;;
9372;SDS011;10838;52.350;9.790;2023-05-15T04:56:28;12.53;;;9.53;;
9372;SDS011;10838;52.350;9.790;2023-05-15T04:58:55;11.37;;;9.63;;
9372;SDS011;10838;52.350;9.790;2023-05-15T05:01:21;11.87;;;9.47;;
9372;SDS011;10838;52.350;9.790;2023-05-15T05:03:49;10.00;;;9.03;;
9372;SDS011;10838;52.350;9.790;2023-05-15T05:06:16;12.37;;;9.80;;
9372;SDS011;10838;52.350;9.790;2023-05-15T05:08:42;10.13;;;9.27;;
9372;SDS011;10838;52.350;9.790;2023-05-15T05:11:09;10.37;;;9.37;;
9372;SDS011;10838;52.350;9.790;2023-05-15T05:13:35;11.27;;;9.43;;
9372;SDS011;10838;52.350;9.790;2023-05-15T05:16:02;10.67;;;9.57;;
9372;SDS011;10838;52.350;9.790;2023-05-15T05:18:29;10.37;;;9.40;;
9372;SDS011;10838;52.350;9.790;2023-05-15T05:21:00;11.30;;;10.07;;
9372;SDS011;10838;52.350;9.790;2023-05-15T05:23:27;10.67;;;9.67;;
9372;SDS011;10838;52.350;9.790;2023-05-15T05:25:53;10.67;;;9.67;;
9372;SDS011;10838;52.350;9.790;2023-05-15T05:28:20;10.63;;;9.53;;
9372;SDS011;10838;52.350;9.790;2023-05-15T05:30:47;11.33;;;10.40;;
9372;SDS011;10838;52.350;9.790;2023-05-15T05:33:14;11.17;;;10.13;;
9372;SDS011;10838;52.350;9.790;2023-05-15T05:35:41;12.40;;;10.50;;
9372;SDS011;10838;52.350;9.790;2023-05-15T05:38:08;12.87;;;10.07;;
9372;SDS011;10838;52.350;9.790;2023-05-15T05:40:35;11.13;;;10.03;;
9372;SDS011;10838;52.350;9.790;2023-05-15T05:43:02;11.93;;;10.73;;
9372;SDS011;10838;52.350;9.790;2023-05-15T05:45:29;11.27;;;10.30;;
9372;SDS011;10838;52.350;9.790;2023-05-15T05:47:55;10.70;;;9.70;;
9372;SDS011;10838;52.350;9.790;2023-05-15T05:50:22;11.47;;;10.37;;
9372;SDS011;10838;52.350;9.790;2023-05-15T05:52:49;11.70;;;10.53;;
9372;SDS011;10838;52.350;9.790;2023-05-15T05:55:17;11.27;;;10.03;;
9372;SDS011;10838;52.350;9.790;2023-05-15T05:57:44;11.63;;;9.70;;
9372;SDS011;10838;52.350;9.790;2023-05-15T06:00:11;10.47;;;9.43;;
9372;SDS011;10838;52.350;9.790;2023-05-15T06:02:38;11.07;;;10.07;;
9372;SDS011;10838;52.350;9.790;2023-05-15T06:05:05;11.10;;;10.07;;
9372;SDS011;10838;52.350;9.790;2023-05-15T06:07:32;11.03;;;9.47;;
9372;SDS011;10838;52.350;9.790;2023-05-15T06:09:59;11.30;;;10.20;;
9372;SDS011;10838;52.350;9.790;2023-05-15T06:12:28;12.57;;;9.50;;
9372;SDS011;10838;52.350;9.790;2023-05-15T06:14:54;12.23;;;10.60;;
9372;SDS011;10838;52.350;9.790;2023-05-15T06:17:21;11.97;;;10.87;;
9372;SDS011;10838;52.350;9.790;2023-05-15T06:19:47;13.30;;;10.03;;
9372;SDS011;10838;52.350;9.790;2023-05-15T06:22:14;11.67;;;10.00;;
9372;SDS011;10838;52.350;9.790;2023-05-15T06:24:41;10.67;;;9.77;;
9372;SDS011;10838;52.350;9.790;2023-05-15T06:27:07;13.57;;;10.17;;
9372;SDS011;10838;52.350;9.790;2023-05-15T06:29:35;11.83;;;10.37;;
9372;SDS011;10838;52.350;9.790;2023-05-15T06:32:01;10.60;;;9.50;;
9372;SDS011;10838;52.350;9.790;2023-05-15T06:34:28;11.43;;;10.27;;
9372;SDS011;10838;52.350;9.790;2023-05-15T06:36:55;10.50;;;9.50;;
9372;SDS011;10838;52.350;9.790;2023-05-15T06:39:21;11.30;;;9.50;;
9372;SDS011;10838;52.350;9.790;2023-05-15T06:41:48;10.50;;;9.40;;
9372;SDS011;10838;52.350;9.790;2023-05-15T06:44:15;10.60;;;9.50;;
9372;SDS011;10838;52.350;9.790;2023-05-15T06:46:42;9.30;;;8.43;;
9372;SDS011;10838;52.350;9.790;2023-05-15T06:49:09;9.53;;;8.77;;
9372;SDS011;10838;52.350;9.790;2023-05-15T06:51:36;10.33;;;9.10;;
9372;SDS011;10838;52.350;9.790;2023-05-15T06:54:02;9.10;;;8.37;;
9372;SDS011;10838;52.350;9.790;2023-05-15T06:56:29;10.67;;;8.03;;
9372;SDS011;10838;52.350;9.790;2023-05-15T06:58:55;10.60;;;7.00;;
9372;SDS011;10838;52.350;9.790;2023-05-15T07:01:22;8.07;;;7.27;;
9372;SDS011;10838;52.350;9.790;2023-05-15T07:03:50;10.67;;;8.07;;
9372;SDS011;10838;52.350;9.790;2023-05-15T07:06:16;9.93;;;8.93;;
9372;SDS011;10838;52.350;9.790;2023-05-15T07:08:43;9.20;;;8.30;;
9372;SDS011;10838;52.350;9.790;2023-05-15T07:11:09;14.63;;;8.17;;
9372;SDS011;10838;52.350;9.790;2023-05-15T07:13:36;9.27;;;8.37;;
9372;SDS011;10838;52.350;9.790;2023-05-15T07:16:03;10.20;;;8.20;;
9372;SDS011;10838;52.350;9.790;2023-05-15T07:18:30;8.83;;;8.03;;
9372;SDS011;10838;52.350;9.790;2023-05-15T07:20:58;9.37;;;7.90;;
9372;SDS011;10838;52.350;9.790;2023-05-15T07:23:24;9.97;;;8.27;;
9372;SDS011;10838;52.350;9.790;2023-05-15T07:25:51;8.97;;;8.10;;
9372;SDS011;10838;52.350;9.790;2023-05-15T07:28:18;11.97;;;8.03;;
9372;SDS011;10838;52.350;9.790;2023-05-15T07:30:45;7.67;;;7.07;;
9372;SDS011;10838;52.350;9.790;2023-05-15T07:33:12;8.50;;;7.60;;
9372;SDS011;10838;52.350;9.790;2023-05-15T07:35:38;9.33;;;7.50;;
9372;SDS011;10838;52.350;9.790;2023-05-15T07:38:06;9.43;;;7.17;;
9372;SDS011;10838;52.350;9.790;2023-05-15T07:40:33;8.47;;;7.57;;
9372;SDS011;10838;52.350;9.790;2023-05-15T07:42:59;8.07;;;7.27;;
9372;SDS011;10838;52.350;9.790;2023-05-15T07:45:26;11.87;;;7.30;;
9372;SDS011;10838;52.350;9.790;2023-05-15T07:47:53;8.30;;;7.37;;
9372;SDS011;10838;52.350;9.790;2023-05-15T07:50:21;8.97;;;7.70;;
9372;SDS011;10838;52.350;9.790;2023-05-15T07:52:47;9.73;;;7.70;;
9372;SDS011;10838;52.350;9.790;2023-05-15T07:55:15;8.37;;;7.20;;
9372;SDS011;10838;52.350;9.790;2023-05-15T07:57:42;8.83;;;6.90;;
9372;SDS011;10838;52.350;9.790;2023-05-15T08:00:09;8.93;;;7.33;;
9372;SDS011;10838;52.350;9.790;2023-05-15T08:02:37;12.97;;;7.17;;
9372;SDS011;10838;52.350;9.790;2023-05-15T08:05:04;13.67;;;7.07;;
9372;SDS011;10838;52.350;9.790;2023-05-15T08:07:31;8.87;;;7.07;;
9372;SDS011;10838;52.350;9.790;2023-05-15T08:09:58;12.53;;;7.37;;
9372;SDS011;10838;52.350;9.790;2023-05-15T08:12:26;6.90;;;6.30;;
9372;SDS011;10838;52.350;9.790;2023-05-15T08:14:53;9.70;;;6.67;;
9372;SDS011;10838;52.350;9.790;2023-05-15T08:17:20;7.43;;;6.77;;
9372;SDS011;10838;52.350;9.790;2023-05-15T08:19:48;11.80;;;7.63;;
9372;SDS011;10838;52.350;9.790;2023-05-15T08:22:14;11.27;;;6.83;;
9372;SDS011;10838;52.350;9.790;2023-05-15T08:24:41;9.30;;;6.90;;
9372;SDS011;10838;52.350;9.790;2023-05-15T08:27:08;8.83;;;7.83;;
9372;SDS011;10838;52.350;9.790;2023-05-15T08:29:36;12.23;;;8.00;;
9372;SDS011;10838;52.350;9.790;2023-05-15T08:32:04;9.50;;;8.20;;
9372;SDS011;10838;52.350;9.790;2023-05-15T08:34:31;8.67;;;7.17;;
9372;SDS011;10838;52.350;9.790;2023-05-15T08:36:58;11.20;;;7.80;;
9372;SDS011;10838;52.350;9.790;2023-05-15T08:39:24;7.90;;;7.20;;
9372;SDS011;10838;52.350;9.790;2023-05-15T08:41:51;8.40;;;7.47;;
9372;SDS011;10838;52.350;9.790;2023-05-15T08:44:22;8.83;;;7.80;;
9372;SDS011;10838;52.350;9.790;2023-05-15T08:46:50;8.50;;;7.43;;
9372;SDS011;10838;52.350;9.790;2023-05-15T08:49:19;9.43;;;7.30;;
9372;SDS011;10838;52.350;9.790;2023-05-15T08:51:52;8.33;;;7.53;;
9372;SDS011;10838;52.350;9.790;2023-05-15T08:54:19;9.43;;;7.37;;
9372;SDS011;10838;52.350;9.790;2023-05-15T08:56:45;12.30;;;7.10;;
9372;SDS011;10838;52.350;9.790;2023-05-15T08:59:12;7.50;;;6.90;;
9372;SDS011;10838;52.350;9.790;2023-05-15T09:01:39;9.67;;;6.03;;
9372;SDS011;10838;52.350;9.790;2023-05-15T09:04:06;9.57;;;6.57;;
9372;SDS011;10838;52.350;9.790;2023-05-15T09:06:33;13.17;;;7.00;;
9372;SDS011;10838;52.350;9.790;2023-05-15T09:09:00;9.80;;;6.20;;
9372;SDS011;10838;52.350;9.790;2023-05-15T09:11:29;7.10;;;5.80;;
9372;SDS011;10838;52.350;9.790;2023-05-15T09:13:57;5.43;;;4.93;;
9372;SDS011;10838;52.350;9.790;2023-05-15T09:16:24;9.40;;;4.83;;
9372;SDS011;10838;52.350;9.790;2023-05-15T09:18:51;6.27;;;5.20;;
9372;SDS011;10838;52.350;9.790;2023-05-15T09:21:22;7.83;;;4.77;;
9372;SDS011;10838;52.350;9.790;2023-05-15T09:23:50;6.33;;;4.70;;
9372;SDS011;10838;52.350;9.790;2023-05-15T09:26:16;9.93;;;5.10;;
9372;SDS011;10838;52.350;9.790;2023-05-15T09:28:43;7.23;;;4.83;;
9372;SDS011;10838;52.350;9.790;2023-05-15T09:31:10;12.37;;;4.83;;
9372;SDS011;10838;52.350;9.790;2023-05-15T09:33:37;6.73;;;4.60;;
9372;SDS011;10838;52.350;9.790;2023-05-15T09:36:06;5.97;;;3.90;;
9372;SDS011;10838;52.350;9.790;2023-05-15T09:38:40;6.47;;;4.40;;
9372;SDS011;10838;52.350;9.790;2023-05-15T09:41:11;5.17;;;4.00;;
9372;SDS011;10838;52.350;9.790;2023-05-15T09:43:39;9.47;;;4.83;;
9372;SDS011;10838;52.350;9.790;2023-05-15T09:46:06;4.70;;;4.30;;
9372;SDS011;10838;52.350;9.790;2023-05-15T09:48:36;8.97;;;4.60;;
9372;SDS011;10838;52.350;9.790;2023-05-15T09:51:04;6.40;;;5.47;;
9372;SDS011;10838;52.350;9.790;2023-05-15T09:53:31;8.17;;;4.70;;
9372;SDS011;10838;52.350;9.790;2023-05-15T09:55:59;9.77;;;4.90;;
9372;SDS011;10838;52.350;9.790;2023-05-15T09:58:27;6.83;;;4.80;;
9372;SDS011;10838;52.350;9.790;2023-05-15T10:00:54;5.83;;;4.13;;
9372;SDS011;10838;52.350;9.790;2023-05-15T10:03:24;4.80;;;4.40;;
9372;SDS011;10838;52.350;9.790;2023-05-15T10:05:53;9.03;;;4.90;;
9372;SDS011;10838;52.350;9.790;2023-05-15T10:08:25;6.60;;;4.60;;
9372;SDS011;10838;52.350;9.790;2023-05-15T10:10:53;4.50;;;4.10;;
9372;SDS011;10838;52.350;9.790;2023-05-15T10:13:22;5.17;;;4.63;;
9372;SDS011;10838;52.350;9.790;2023-05-15T10:15:49;6.17;;;4.60;;
9372;SDS011;10838;52.350;9.790;2023-05-15T10:18:17;5.60;;;4.87;;
9372;SDS011;10838;52.350;9.790;2023-05-15T10:20:45;9.03;;;4.73;;
9372;SDS011;10838;52.350;9.790;2023-05-15T10:23:12;6.60;;;4.70;;
9372;SDS011;10838;52.350;9.790;2023-05-15T10:25:44;7.47;;;4.50;;
9372;SDS011;10838;52.350;9.790;2023-05-15T10:28:15;6.83;;;4.80;;
9372;SDS011;10838;52.350;9.790;2023-05-15T10:30:45;8.17;;;4.40;;
9372;SDS011;10838;52.350;9.790;2023-05-15T10:33:11;8.43;;;4.77;;
9372;SDS011;10838;52.350;9.790;2023-05-15T10:35:38;6.17;;;4.43;;
9372;SDS011;10838;52.350;9.790;2023-05-15T10:38:05;6.43;;;4.70;;
9372;SDS011;10838;52.350;9.790;2023-05-15T10:40:33;6.37;;;5.00;;
9372;SDS011;10838;52.350;9.790;2023-05-15T10:43:02;7.77;;;4.33;;
9372;SDS011;10838;52.350;9.790;2023-05-15T10:45:30;8.60;;;4.77;;
9372;SDS011;10838;52.350;9.790;2023-05-15T10:48:00;6.20;;;4.47;;
9372;SDS011;10838;52.350;9.790;2023-05-15T10:50:27;4.93;;;4.53;;
9372;SDS011;10838;52.350;9.790;2023-05-15T10:52:54;9.27;;;5.13;;
9372;SDS011;10838;52.350;9.790;2023-05-15T10:55:21;6.53;;;4.57;;
9372;SDS011;10838;52.350;9.790;2023-05-15T10:57:48;6.30;;;4.90;;
9372;SDS011;10838;52.350;9.790;2023-05-15T11:00:25;6.10;;;4.27;;
9372;SDS011;10838;52.350;9.790;2023-05-15T11:02:53;10.60;;;4.63;;
9372;SDS011;10838;52.350;9.790;2023-05-15T11:05:24;5.40;;;4.80;;
9372;SDS011;10838;52.350;9.790;2023-05-15T11:10:51;6.43;;;4.83;;
9372;SDS011;10838;52.350;9.790;2023-05-15T11:13:18;4.87;;;4.40;;
9372;SDS011;10838;52.350;9.790;2023-05-15T11:15:45;7.80;;;5.00;;
9372;SDS011;10838;52.350;9.790;2023-05-15T11:18:13;6.57;;;4.27;;
9372;SDS011;10838;52.350;9.790;2023-05-15T11:20:41;6.07;;;4.97;;
9372;SDS011;10838;52.350;9.790;2023-05-15T11:23:36;7.20;;;5.00;;
9372;SDS011;10838;52.350;9.790;2023-05-15T11:26:04;6.30;;;5.10;;
9372;SDS011;10838;52.350;9.790;2023-05-15T11:28:30;9.83;;;4.73;;
9372;SDS011;10838;52.350;9.790;2023-05-15T11:31:06;5.17;;;4.20;;
9372;SDS011;10838;52.350;9.790;2023-05-15T11:33:33;4.73;;;4.33;;
9372;SDS011;10838;52.350;9.790;2023-05-15T11:36:04;7.87;;;4.70;;
9372;SDS011;10838;52.350;9.790;2023-05-15T11:38:35;5.13;;;4.63;;
9372;SDS011;10838;52.350;9.790;2023-05-15T11:41:11;10.63;;;4.37;;
9372;SDS011;10838;52.350;9.790;2023-05-15T11:43:42;8.13;;;4.20;;
9372;SDS011;10838;52.350;9.790;2023-05-15T11:46:09;5.43;;;4.30;;
9372;SDS011;10838;52.350;9.790;2023-05-15T11:48:38;6.00;;;4.57;;
9372;SDS011;10838;52.350;9.790;2023-05-15T11:51:10;8.23;;;4.10;;
9372;SDS011;10838;52.350;9.790;2023-05-15T11:53:40;9.13;;;4.13;;
9372;SDS011;10838;52.350;9.790;2023-05-15T11:56:11;5.90;;;4.83;;
9372;SDS011;10838;52.350;9.790;2023-05-15T11:58:41;8.37;;;5.17;;
9372;SDS011;10838;52.350;9.790;2023-05-15T12:01:09;8.77;;;4.30;;
9372;SDS011;10838;52.350;9.790;2023-05-15T12:03:36;7.07;;;4.30;;
9372;SDS011;10838;52.350;9.790;2023-05-15T12:06:02;5.30;;;4.43;;
9372;SDS011;10838;52.350;9.790;2023-05-15T12:08:31;6.97;;;4.57;;
9372;SDS011;10838;52.350;9.790;2023-05-15T12:10:59;6.57;;;4.50;;
9372;SDS011;10838;52.350;9.790;2023-05-15T12:13:26;10.23;;;4.67;;
9372;SDS011;10838;52.350;9.790;2023-05-15T12:15:53;7.90;;;5.13;;
9372;SDS011;10838;52.350;9.790;2023-05-15T12:18:20;5.40;;;4.50;;
9372;SDS011;10838;52.350;9.790;2023-05-15T12:20:50;10.37;;;5.00;;
9372;SDS011;10838;52.350;9.790;2023-05-15T12:23:19;5.00;;;4.47;;
9372;SDS011;10838;52.350;9.790;2023-05-15T12:25:48;7.60;;;4.53;;
9372;SDS011;10838;52.350;9.790;2023-05-15T12:28:17;6.17;;;4.30;;
9372;SDS011;10838;52.350;9.790;2023-05-15T12:30:43;7.47;;;4.40;;
9372;SDS011;10838;52.350;9.790;2023-05-15T12:33:10;8.57;;;5.53;;
9372;SDS011;10838;52.350;9.790;2023-05-15T12:35:40;5.63;;;4.40;;
9372;SDS011;10838;52.350;9.790;2023-05-15T12:38:07;6.60;;;4.47;;
9372;SDS011;10838;52.350;9.790;2023-05-15T12:40:39;8.07;;;4.57;;
9372;SDS011;10838;52.350;9.790;2023-05-15T12:43:07;8.63;;;5.27;;
9372;SDS011;10838;52.350;9.790;2023-05-15T12:45:36;5.57;;;5.10;;
9372;SDS011;10838;52.350;9.790;2023-05-15T12:48:03;6.93;;;4.90;;
9372;SDS011;10838;52.350;9.790;2023-05-15T12:50:32;7.67;;;5.23;;
9372;SDS011;10838;52.350;9.790;2023-05-15T12:53:00;7.17;;;5.37;;
9372;SDS011;10838;52.350;9.790;2023-05-15T12:55:29;5.70;;;4.70;;
9372;SDS011;10838;52.350;9.790;2023-05-15T12:57:57;11.80;;;5.30;;
9372;SDS011;10838;52.350;9.790;2023-05-15T13:00:27;8.90;;;4.90;;
9372;SDS011;10838;52.350;9.790;2023-05-15T13:02:56;6.77;;;5.40;;
9372;SDS011;10838;52.350;9.790;2023-05-15T13:05:23;6.70;;;5.23;;
9372;SDS011;10838;52.350;9.790;2023-05-15T13:07:50;5.87;;;5.37;;
9372;SDS011;10838;52.350;9.790;2023-05-15T13:10:19;5.47;;;4.97;;
9372;SDS011;10838;52.350;9.790;2023-05-15T13:12:46;5.50;;;4.70;;
9372;SDS011;10838;52.350;9.790;2023-05-15T13:15:24;10.03;;;5.17;;
9372;SDS011;10838;52.350;9.790;2023-05-15T13:17:57;9.33;;;5.00;;
9372;SDS011;10838;52.350;9.790;2023-05-15T13:20:25;8.07;;;5.53;;
9372;SDS011;10838;52.350;9.790;2023-05-15T13:22:52;5.70;;;5.17;;
9372;SDS011;10838;52.350;9.790;2023-05-15T13:25:20;5.23;;;4.83;;
9372;SDS011;10838;52.350;9.790;2023-05-15T13:27:46;5.00;;;4.60;;
9372;SDS011;10838;52.350;9.790;2023-05-15T13:30:14;4.60;;;4.27;;
9372;SDS011;10838;52.350;9.790;2023-05-15T13:32:41;6.73;;;4.90;;
9372;SDS011;10838;52.350;9.790;2023-05-15T13:35:09;8.33;;;4.97;;
9372;SDS011;10838;52.350;9.790;2023-05-15T13:37:36;15.27;;;5.17;;
9372;SDS011;10838;52.350;9.790;2023-05-15T13:40:03;7.63;;;4.60;;
9372;SDS011;10838;52.350;9.790;2023-05-15T13:42:33;5.87;;;4.67;;
9372;SDS011;10838;52.350;9.790;2023-05-15T13:45:01;7.93;;;5.63;;
9372;SDS011;10838;52.350;9.790;2023-05-15T13:47:28;11.70;;;6.57;;
9372;SDS011;10838;52.350;9.790;2023-05-15T13:49:54;8.20;;;5.67;;
9372;SDS011;10838;52.350;9.790;2023-05-15T13:52:23;7.07;;;6.37;;
9372;SDS011;10838;52.350;9.790;2023-05-15T13:54:50;7.97;;;5.97;;
9372;SDS011;10838;52.350;9.790;2023-05-15T13:57:17;6.63;;;5.93;;
9372;SDS011;10838;52.350;9.790;2023-05-15T13:59:44;6.20;;;5.60;;
9372;SDS011;10838;52.350;9.790;2023-05-15T14:02:10;9.33;;;5.57;;
9372;SDS011;10838;52.350;9.790;2023-05-15T14:04:37;5.80;;;5.30;;
9372;SDS011;10838;52.350;9.790;2023-05-15T14:07:04;6.07;;;5.50;;
9372;SDS011;10838;52.350;9.790;2023-05-15T14:09:32;7.63;;;4.77;;
9372;SDS011;10838;52.350;9.790;2023-05-15T14:11:59;5.37;;;4.90;;
9372;SDS011;10838;52.350;9.790;2023-05-15T14:14:25;8.93;;;4.90;;
9372;SDS011;10838;52.350;9.790;2023-05-15T14:16:52;5.10;;;4.70;;
9372;SDS011;10838;52.350;9.790;2023-05-15T14:19:18;7.97;;;5.60;;
9372;SDS011;10838;52.350;9.790;2023-05-15T14:21:45;5.73;;;5.20;;
9372;SDS011;10838;52.350;9.790;2023-05-15T14:24:11;10.27;;;4.90;;
9372;SDS011;10838;52.350;9.790;2023-05-15T14:26:39;5.70;;;5.07;;
9372;SDS011;10838;52.350;9.790;2023-05-15T14:29:08;9.50;;;4.80;;
9372;SDS011;10838;52.350;9.790;2023-05-15T14:31:34;4.97;;;4.67;;
9372;SDS011;10838;52.350;9.790;2023-05-15T14:34:01;6.30;;;4.37;;
9372;SDS011;10838;52.350;9.790;2023-05-15T14:36:30;4.70;;;4.30;;
9372;SDS011;10838;52.350;9.790;2023-05-15T14:38:57;8.93;;;4.93;;
9372;SDS011;10838;52.350;9.790;2023-05-15T14:41:23;5.47;;;4.47;;
9372;SDS011;10838;52.350;9.790;2023-05-15T14:43:51;4.60;;;4.07;;
9372;SDS011;10838;52.350;9.790;2023-05-15T14:46:18;3.90;;;3.50;;
9372;SDS011;10838;52.350;9.790;2023-05-15T14:48:44;4.40;;;3.30;;
9372;SDS011;10838;52.350;9.790;2023-05-15T14:51:11;5.80;;;3.10;;
9372;SDS011;10838;52.350;9.790;2023-05-15T14:53:38;5.57;;;3.80;;
9372;SDS011;10838;52.350;9.790;2023-05-15T14:56:04;3.80;;;3.23;;
9372;SDS011;10838;52.350;9.790;2023-05-15T14:58:31;3.43;;;3.17;;